Time,TemperatureF,DewpointF,PressureIn,WindDirection,WindDirectionDegrees,WindSpeedMPH,WindSpeedGustMPH,Humidity,HourlyPrecipIn,Conditions,Clouds,dailyrainin,SoftwareType,DateUTC
2013-09-15 00:00:00,58.7,56.1,29.91,NW,318,1.0,3.0,91,0.81,,,1.26,Wunderground v.1.15,2013-09-15 06:00:00,
2013-09-15 00:10:00,58.2,55.9,29.90,NW,316,3.0,3.0,92,0.20,,,0.03,Wunderground v.1.15,2013-09-15 06:10:00,
2013-09-15 00:20:00,57.6,55.3,29.90,NW,322,2.0,2.0,92,0.21,,,0.06,Wunderground v.1.15,2013-09-15 06:20:00,
2013-09-15 00:30:00,57.8,55.8,29.90,North,355,5.0,6.0,93,0.17,,,0.08,Wunderground v.1.15,2013-09-15 06:30:00,
2013-09-15 00:40:00,57.8,55.8,29.91,North,350,3.0,5.0,93,0.04,,,0.08,Wunderground v.1.15,2013-09-15 06:40:00,
2013-09-15 00:50:00,57.9,55.9,29.90,North,360,5.0,5.0,93,0.08,,,0.10,Wunderground v.1.15,2013-09-15 06:50:00,
2013-09-15 01:00:00,58.1,56.1,29.91,NNW,333,3.0,3.0,93,0.04,,,0.11,Wunderground v.1.15,2013-09-15 07:00:00,
2013-09-15 01:10:00,58.1,56.1,29.90,North,10,3.0,11.0,93,0.20,,,0.13,Wunderground v.1.15,2013-09-15 07:10:00,
2013-09-15 01:20:00,58.2,56.2,29.90,North,11,4.0,4.0,93,0.33,,,0.16,Wunderground v.1.15,2013-09-15 07:20:00,
2013-09-15 01:30:00,58.1,55.8,29.91,North,11,2.0,2.0,92,0.06,,,0.16,Wunderground v.1.15,2013-09-15 07:30:00,
2013-09-15 01:40:00,58.2,55.3,29.90,NNE,13,5.0,5.0,90,0.00,,,0.16,Wunderground v.1.15,2013-09-15 07:40:00,
2013-09-15 01:50:00,58.3,55.1,29.90,NNE,23,3.0,3.0,89,0.00,,,0.16,Wunderground v.1.15,2013-09-15 07:50:00,
2013-09-15 02:00:00,58.4,55.5,29.91,East,84,1.0,11.0,90,0.00,,,0.16,Wunderground v.1.15,2013-09-15 08:00:00,
2013-09-15 02:10:00,58.6,55.7,29.91,SE,133,4.0,4.0,90,0.07,,,0.17,Wunderground v.1.15,2013-09-15 08:10:00,
2013-09-15 02:20:00,58.4,55.8,29.89,East,93,1.0,11.0,91,0.22,,,0.20,Wunderground v.1.15,2013-09-15 08:20:00,
2013-09-15 02:30:00,58.5,56.2,29.88,ENE,78,3.0,3.0,92,0.07,,,0.21,Wunderground v.1.15,2013-09-15 08:30:00,
2013-09-15 02:40:00,58.4,55.8,29.89,ENE,62,1.0,1.0,91,0.04,,,0.21,Wunderground v.1.15,2013-09-15 08:40:00,
2013-09-15 02:50:00,58.8,56.2,29.89,ENE,63,0.0,11.0,91,0.00,,,0.21,Wunderground v.1.15,2013-09-15 08:50:00,
2013-09-15 03:00:00,59.0,56.4,29.89,SSE,150,1.0,11.0,91,0.00,,,0.21,Wunderground v.1.15,2013-09-15 09:00:00,
2013-09-15 03:10:00,59.0,56.4,29.89,South,181,4.0,4.0,91,0.00,,,0.21,Wunderground v.1.15,2013-09-15 09:10:00,
2013-09-15 03:20:00,59.0,56.4,29.89,South,181,2.0,2.0,91,0.00,,,0.21,Wunderground v.1.15,2013-09-15 09:20:00,
2013-09-15 03:30:00,58.6,56.3,29.89,South,181,0.0,11.0,92,0.00,,,0.21,Wunderground v.1.15,2013-09-15 09:30:00,
2013-09-15 03:40:00,58.4,56.4,29.89,South,181,0.0,11.0,93,0.00,,,0.21,Wunderground v.1.15,2013-09-15 09:40:00,
2013-09-15 03:50:00,58.2,56.2,29.89,South,181,1.0,11.0,93,0.00,,,0.21,Wunderground v.1.15,2013-09-15 09:50:00,
2013-09-15 04:00:00,58.0,56.0,29.90,South,184,1.0,11.0,93,0.00,,,0.21,Wunderground v.1.15,2013-09-15 10:00:00,
2013-09-15 04:10:00,58.1,56.1,29.90,SSW,204,1.0,1.0,93,0.00,,,0.21,Wunderground v.1.15,2013-09-15 10:10:00,
2013-09-15 04:20:00,58.2,56.2,29.90,SW,220,2.0,11.0,93,0.00,,,0.21,Wunderground v.1.15,2013-09-15 10:20:00,
2013-09-15 04:30:00,58.4,56.4,29.90,West,265,2.0,11.0,93,0.00,,,0.21,Wunderground v.1.15,2013-09-15 10:30:00,
2013-09-15 04:40:00,58.4,56.1,29.90,West,265,1.0,11.0,92,0.00,,,0.21,Wunderground v.1.15,2013-09-15 10:40:00,
2013-09-15 04:50:00,58.3,56.0,29.90,West,266,2.0,2.0,92,0.00,,,0.21,Wunderground v.1.15,2013-09-15 10:50:00,
2013-09-15 05:00:00,58.4,56.4,29.90,West,267,2.0,11.0,93,0.00,,,0.21,Wunderground v.1.15,2013-09-15 11:00:00,
2013-09-15 05:10:00,58.2,56.2,29.91,West,277,2.0,2.0,93,0.00,,,0.21,Wunderground v.1.15,2013-09-15 11:10:00,
2013-09-15 05:20:00,58.2,56.2,29.92,West,277,1.0,11.0,93,0.00,,,0.21,Wunderground v.1.15,2013-09-15 11:20:00,
2013-09-15 05:30:00,58.0,56.0,29.92,West,277,1.0,1.0,93,0.00,,,0.21,Wunderground v.1.15,2013-09-15 11:30:00,
2013-09-15 05:40:00,58.0,56.0,29.92,WNW,284,2.0,11.0,93,0.00,,,0.21,Wunderground v.1.15,2013-09-15 11:40:00,
2013-09-15 05:50:00,58.1,55.8,29.93,WNW,284,1.0,11.0,92,0.00,,,0.21,Wunderground v.1.15,2013-09-15 11:50:00,
2013-09-15 06:00:00,58.0,55.7,29.92,WNW,284,2.0,2.0,92,0.00,,,0.21,Wunderground v.1.15,2013-09-15 12:00:00,
2013-09-15 06:10:00,58.0,55.7,29.93,WNW,284,1.0,11.0,92,0.00,,,0.21,Wunderground v.1.15,2013-09-15 12:10:00,
2013-09-15 06:20:00,58.0,55.4,29.93,WNW,284,1.0,1.0,91,0.00,,,0.21,Wunderground v.1.15,2013-09-15 12:20:00,
2013-09-15 06:30:00,58.0,55.4,29.93,WNW,284,0.0,11.0,91,0.00,,,0.21,Wunderground v.1.15,2013-09-15 12:30:00,
2013-09-15 06:40:00,57.9,55.3,29.94,WNW,284,0.0,11.0,91,0.00,,,0.21,Wunderground v.1.15,2013-09-15 12:40:00,
2013-09-15 06:50:00,57.9,55.3,29.93,WNW,284,0.0,11.0,91,0.00,,,0.21,Wunderground v.1.15,2013-09-15 12:50:00,
2013-09-15 07:00:00,57.9,55.3,29.93,WNW,284,0.0,11.0,91,0.00,,,0.21,Wunderground v.1.15,2013-09-15 13:00:00,
2013-09-15 07:10:00,57.8,55.2,29.94,WNW,284,0.0,11.0,91,0.00,,,0.21,Wunderground v.1.15,2013-09-15 13:10:00,
2013-09-15 07:20:00,57.6,55.3,29.94,WNW,284,0.0,11.0,92,0.00,,,0.21,Wunderground v.1.15,2013-09-15 13:20:00,
2013-09-15 07:30:00,57.7,55.4,29.94,WNW,284,0.0,11.0,92,0.00,,,0.21,Wunderground v.1.15,2013-09-15 13:30:00,
2013-09-15 07:40:00,57.9,55.6,29.95,WNW,284,1.0,1.0,92,0.00,,,0.21,Wunderground v.1.15,2013-09-15 13:40:00,
2013-09-15 07:50:00,58.0,55.4,29.95,WNW,284,0.0,11.0,91,0.00,,,0.21,Wunderground v.1.15,2013-09-15 13:50:00,
2013-09-15 08:00:00,58.0,55.1,29.96,WNW,284,0.0,11.0,90,0.00,,,0.21,Wunderground v.1.15,2013-09-15 14:00:00,
2013-09-15 08:10:00,58.1,55.2,29.96,WNW,284,0.0,11.0,90,0.00,,,0.21,Wunderground v.1.15,2013-09-15 14:10:00,
2013-09-15 08:20:00,58.4,55.5,29.96,WNW,284,0.0,11.0,90,0.00,,,0.21,Wunderground v.1.15,2013-09-15 14:20:00,
2013-09-15 08:30:00,58.9,55.7,29.96,WNW,284,0.0,11.0,89,0.00,,,0.21,Wunderground v.1.15,2013-09-15 14:30:00,
2013-09-15 08:40:00,59.6,56.0,29.97,WNW,284,0.0,11.0,88,0.00,,,0.21,Wunderground v.1.15,2013-09-15 14:40:00,
2013-09-15 08:50:00,61.3,57.4,29.96,WNW,284,0.0,11.0,87,0.00,,,0.21,Wunderground v.1.15,2013-09-15 14:50:00,
2013-09-15 09:00:00,61.9,57.0,29.97,WNW,284,0.0,11.0,84,0.00,,,0.21,Wunderground v.1.15,2013-09-15 15:00:00,
2013-09-15 09:10:00,62.6,57.7,29.97,WNW,284,0.0,11.0,84,0.00,,,0.21,Wunderground v.1.15,2013-09-15 15:10:00,
2013-09-15 09:20:00,63.2,57.6,29.97,WNW,284,0.0,11.0,82,0.00,,,0.21,Wunderground v.1.15,2013-09-15 15:20:00,
2013-09-15 09:30:00,63.9,58.0,29.97,WNW,284,0.0,11.0,81,0.00,,,0.21,Wunderground v.1.15,2013-09-15 15:30:00,
2013-09-15 09:40:00,64.5,57.8,29.97,WNW,284,1.0,1.0,79,0.00,,,0.21,Wunderground v.1.15,2013-09-15 15:40:00,
2013-09-15 09:50:00,65.7,58.3,29.96,WNW,284,0.0,11.0,77,0.00,,,0.21,Wunderground v.1.15,2013-09-15 15:50:00,
2013-09-15 10:00:00,66.0,58.2,29.96,WNW,284,1.0,11.0,76,0.00,,,0.21,Wunderground v.1.15,2013-09-15 16:00:00,
2013-09-15 10:10:00,66.4,58.2,29.96,WNW,284,0.0,11.0,75,0.00,,,0.21,Wunderground v.1.15,2013-09-15 16:10:00,
2013-09-15 10:20:00,67.0,57.7,29.97,WNW,284,1.0,1.0,72,0.00,,,0.21,Wunderground v.1.15,2013-09-15 16:20:00,
2013-09-15 10:30:00,67.6,57.9,29.96,WNW,284,1.0,1.0,71,0.00,,,0.21,Wunderground v.1.15,2013-09-15 16:30:00,
2013-09-15 10:40:00,68.0,57.8,29.96,WNW,284,0.0,11.0,70,0.00,,,0.21,Wunderground v.1.15,2013-09-15 16:40:00,
2013-09-15 10:50:00,68.5,57.5,29.96,WNW,284,1.0,1.0,68,0.00,,,0.21,Wunderground v.1.15,2013-09-15 16:50:00,
2013-09-15 11:00:00,68.3,57.7,29.96,WNW,284,1.0,11.0,69,0.00,,,0.21,Wunderground v.1.15,2013-09-15 17:00:00,
2013-09-15 11:10:00,68.5,57.9,29.96,WNW,284,1.0,1.0,69,0.00,,,0.21,Wunderground v.1.15,2013-09-15 17:10:00,
2013-09-15 11:20:00,69.0,58.0,29.96,WNW,284,1.0,11.0,68,0.00,,,0.21,Wunderground v.1.15,2013-09-15 17:20:00,
2013-09-15 11:30:00,69.0,58.0,29.96,WNW,284,1.0,1.0,68,0.00,,,0.21,Wunderground v.1.15,2013-09-15 17:30:00,
2013-09-15 11:40:00,69.1,58.1,29.96,WNW,284,1.0,11.0,68,0.00,,,0.21,Wunderground v.1.15,2013-09-15 17:40:00,
2013-09-15 11:50:00,69.6,57.7,29.96,WNW,284,1.0,1.0,66,0.00,,,0.21,Wunderground v.1.15,2013-09-15 17:50:00,
2013-09-15 12:00:00,70.0,57.7,29.96,WNW,284,0.0,11.0,65,0.00,,,0.21,Wunderground v.1.15,2013-09-15 18:00:00,
2013-09-15 12:10:00,70.1,57.4,29.95,WNW,284,2.0,2.0,64,0.00,,,0.21,Wunderground v.1.15,2013-09-15 18:10:00,
2013-09-15 12:20:00,71.2,58.8,29.95,WNW,284,1.0,11.0,65,0.00,,,0.21,Wunderground v.1.15,2013-09-15 18:20:00,
2013-09-15 12:30:00,72.0,58.3,29.95,WNW,284,2.0,2.0,62,0.00,,,0.21,Wunderground v.1.15,2013-09-15 18:30:00,
2013-09-15 12:40:00,72.1,58.8,29.95,WNW,284,2.0,2.0,63,0.00,,,0.21,Wunderground v.1.15,2013-09-15 18:40:00,
2013-09-15 12:50:00,72.8,58.1,29.95,WNW,284,1.0,11.0,60,0.00,,,0.21,Wunderground v.1.15,2013-09-15 18:50:00,
2013-09-15 13:00:00,72.5,58.3,29.95,WNW,284,1.0,1.0,61,0.00,,,0.21,Wunderground v.1.15,2013-09-15 19:00:00,
2013-09-15 13:10:00,74.0,59.2,29.95,WNW,284,1.0,1.0,60,0.00,,,0.21,Wunderground v.1.15,2013-09-15 19:10:00,
2013-09-15 13:20:00,75.1,58.8,29.95,WNW,284,1.0,1.0,57,0.00,,,0.21,Wunderground v.1.15,2013-09-15 19:20:00,
2013-09-15 13:30:00,75.8,57.4,29.94,WNW,284,1.0,11.0,53,0.00,,,0.21,Wunderground v.1.15,2013-09-15 19:30:00,
2013-09-15 13:40:00,75.9,57.0,29.93,WNW,284,1.0,11.0,52,0.00,,,0.21,Wunderground v.1.15,2013-09-15 19:40:00,
2013-09-15 13:50:00,76.7,57.2,29.93,WNW,284,1.0,1.0,51,0.00,,,0.21,Wunderground v.1.15,2013-09-15 19:50:00,
2013-09-15 14:00:00,77.1,56.5,29.93,WNW,284,1.0,1.0,49,0.00,,,0.21,Wunderground v.1.15,2013-09-15 20:00:00,
2013-09-15 14:10:00,77.6,55.8,29.92,WNW,284,0.0,11.0,47,0.00,,,0.21,Wunderground v.1.15,2013-09-15 20:10:00,
2013-09-15 14:20:00,76.0,56.0,29.92,WNW,284,2.0,2.0,50,0.00,,,0.21,Wunderground v.1.15,2013-09-15 20:20:00,
2013-09-15 14:30:00,77.0,55.8,29.91,WNW,284,2.0,2.0,48,0.00,,,0.21,Wunderground v.1.15,2013-09-15 20:30:00,
2013-09-15 14:40:00,76.2,55.1,29.91,WNW,284,3.0,11.0,48,0.00,,,0.21,Wunderground v.1.15,2013-09-15 20:40:00,
2013-09-15 14:50:00,76.6,54.9,29.90,WNW,284,2.0,2.0,47,0.00,,,0.21,Wunderground v.1.15,2013-09-15 20:50:00,
2013-09-15 15:00:00,78.0,55.5,29.90,WNW,284,1.0,1.0,46,0.00,,,0.21,Wunderground v.1.15,2013-09-15 21:00:00,
2013-09-15 15:10:00,79.2,54.8,29.90,WNW,284,1.0,1.0,43,0.00,,,0.21,Wunderground v.1.15,2013-09-15 21:10:00,
2013-09-15 15:20:00,78.4,55.3,29.90,WNW,284,3.0,11.0,45,0.00,,,0.21,Wunderground v.1.15,2013-09-15 21:20:00,
2013-09-15 15:30:00,78.8,53.1,29.89,WNW,284,2.0,2.0,41,0.00,,,0.21,Wunderground v.1.15,2013-09-15 21:30:00,
2013-09-15 15:40:00,79.6,53.8,29.89,WNW,284,1.0,11.0,41,0.00,,,0.21,Wunderground v.1.15,2013-09-15 21:40:00,
2013-09-15 15:50:00,80.1,54.3,29.88,WNW,284,1.0,11.0,41,0.00,,,0.21,Wunderground v.1.15,2013-09-15 21:50:00,
2013-09-15 16:00:00,79.5,54.4,29.88,WNW,284,2.0,2.0,42,0.00,,,0.21,Wunderground v.1.15,2013-09-15 22:00:00,
2013-09-15 16:10:00,79.7,53.2,29.88,WNW,284,1.0,11.0,40,0.00,,,0.21,Wunderground v.1.15,2013-09-15 22:10:00,
2013-09-15 16:20:00,79.0,53.3,29.88,WNW,284,2.0,11.0,41,0.00,,,0.21,Wunderground v.1.15,2013-09-15 22:20:00,
2013-09-15 16:30:00,79.5,53.1,29.88,WNW,284,1.0,11.0,40,0.00,,,0.21,Wunderground v.1.15,2013-09-15 22:30:00,
2013-09-15 16:40:00,80.8,53.5,29.87,WNW,284,1.0,1.0,39,0.00,,,0.21,Wunderground v.1.15,2013-09-15 22:40:00,
2013-09-15 16:50:00,80.7,52.7,29.88,WNW,284,1.0,11.0,38,0.00,,,0.21,Wunderground v.1.15,2013-09-15 22:50:00,
2013-09-15 17:00:00,79.6,50.3,29.88,WNW,284,3.0,3.0,36,0.00,,,0.21,Wunderground v.1.15,2013-09-15 23:00:00,
2013-09-15 17:10:00,79.5,50.9,29.88,WNW,284,1.0,1.0,37,0.00,,,0.21,Wunderground v.1.15,2013-09-15 23:10:00,
2013-09-15 17:20:00,80.0,51.4,29.88,WNW,284,0.0,11.0,37,0.00,,,0.21,Wunderground v.1.15,2013-09-15 23:20:00,
2013-09-15 17:30:00,80.5,50.3,29.88,WNW,284,1.0,1.0,35,0.00,,,0.21,Wunderground v.1.15,2013-09-15 23:30:00,
2013-09-15 17:40:00,79.6,50.3,29.88,WNW,284,1.0,11.0,36,0.00,,,0.21,Wunderground v.1.15,2013-09-15 23:40:00,
2013-09-15 17:50:00,79.9,50.6,29.88,WNW,284,0.0,11.0,36,0.00,,,0.21,Wunderground v.1.15,2013-09-15 23:50:00,
2013-09-15 18:00:00,80.3,51.7,29.88,WNW,284,0.0,11.0,37,0.00,,,0.21,Wunderground v.1.15,2013-09-16 00:00:00,
2013-09-15 18:10:00,78.8,51.0,29.88,WNW,284,1.0,11.0,38,0.00,,,0.21,Wunderground v.1.15,2013-09-16 00:10:00,
2013-09-15 18:20:00,79.1,51.3,29.88,WNW,284,2.0,11.0,38,0.00,,,0.21,Wunderground v.1.15,2013-09-16 00:20:00,
2013-09-15 18:30:00,78.9,51.1,29.89,WNW,284,1.0,11.0,38,0.00,,,0.21,Wunderground v.1.15,2013-09-16 00:30:00,
2013-09-15 18:40:00,78.8,51.0,29.89,WNW,284,1.0,11.0,38,0.00,,,0.21,Wunderground v.1.15,2013-09-16 00:40:00,
2013-09-15 18:50:00,77.6,52.0,29.89,WNW,284,2.0,2.0,41,0.00,,,0.21,Wunderground v.1.15,2013-09-16 00:50:00,
2013-09-15 19:00:00,77.0,52.8,29.89,WNW,284,2.0,11.0,43,0.00,,,0.21,Wunderground v.1.15,2013-09-16 01:00:00,
2013-09-15 19:10:00,76.3,52.8,29.89,WNW,284,1.0,1.0,44,0.00,,,0.21,Wunderground v.1.15,2013-09-16 01:10:00,
2013-09-15 19:20:00,75.7,54.6,29.90,NE,53,1.0,11.0,48,0.00,,,0.21,Wunderground v.1.15,2013-09-16 01:20:00,
2013-09-15 19:30:00,74.0,55.8,29.90,ESE,113,3.0,11.0,53,0.00,,,0.21,Wunderground v.1.15,2013-09-16 01:30:00,
2013-09-15 19:40:00,72.4,55.3,29.90,ESE,117,6.0,11.0,55,0.00,,,0.21,Wunderground v.1.15,2013-09-16 01:40:00,
2013-09-15 19:50:00,71.3,53.8,29.90,East,101,5.0,11.0,54,0.00,,,0.21,Wunderground v.1.15,2013-09-16 01:50:00,
2013-09-15 20:00:00,70.9,53.4,29.91,East,98,5.0,11.0,54,0.00,,,0.21,Wunderground v.1.15,2013-09-16 02:00:00,
2013-09-15 20:10:00,70.7,53.2,29.91,ESE,106,4.0,11.0,54,0.00,,,0.21,Wunderground v.1.15,2013-09-16 02:10:00,
2013-09-15 20:20:00,70.5,53.1,29.92,ENE,67,4.0,4.0,54,0.00,,,0.21,Wunderground v.1.15,2013-09-16 02:20:00,
2013-09-15 20:30:00,70.4,53.0,29.92,East,85,2.0,11.0,54,0.00,,,0.21,Wunderground v.1.15,2013-09-16 02:30:00,
2013-09-15 20:40:00,70.2,52.8,29.92,East,83,2.0,11.0,54,0.00,,,0.21,Wunderground v.1.15,2013-09-16 02:40:00,
2013-09-15 20:50:00,70.0,53.1,29.92,East,79,1.0,1.0,55,0.00,,,0.21,Wunderground v.1.15,2013-09-16 02:50:00,
2013-09-15 21:00:00,69.9,53.0,29.93,East,79,0.0,11.0,55,0.00,,,0.21,Wunderground v.1.15,2013-09-16 03:00:00,
2013-09-15 21:10:00,69.8,52.9,29.93,East,79,0.0,11.0,55,0.00,,,0.21,Wunderground v.1.15,2013-09-16 03:10:00,
2013-09-15 21:20:00,69.8,52.9,29.93,East,79,0.0,11.0,55,0.00,,,0.21,Wunderground v.1.15,2013-09-16 03:20:00,
2013-09-15 21:30:00,69.9,53.0,29.93,East,79,0.0,11.0,55,0.00,,,0.21,Wunderground v.1.15,2013-09-16 03:30:00,
2013-09-15 21:40:00,70.6,52.6,29.93,ESE,106,3.0,3.0,53,0.00,,,0.21,Wunderground v.1.15,2013-09-16 03:40:00,
2013-09-15 21:50:00,70.6,52.6,29.94,East,98,3.0,3.0,53,0.00,,,0.21,Wunderground v.1.15,2013-09-16 03:50:00,
2013-09-15 22:00:00,70.4,51.9,29.94,East,99,4.0,4.0,52,0.00,,,0.21,Wunderground v.1.15,2013-09-16 04:00:00,
2013-09-15 22:10:00,70.3,51.8,29.95,ESE,107,4.0,11.0,52,0.00,,,0.21,Wunderground v.1.15,2013-09-16 04:10:00,
2013-09-15 22:20:00,70.3,51.3,29.96,East,93,3.0,3.0,51,0.00,,,0.21,Wunderground v.1.15,2013-09-16 04:20:00,
2013-09-15 22:30:00,70.1,52.2,29.96,South,169,2.0,2.0,53,0.00,,,0.21,Wunderground v.1.15,2013-09-16 04:30:00,
2013-09-15 22:40:00,68.9,53.5,29.96,SSW,195,4.0,11.0,58,0.00,,,0.21,Wunderground v.1.15,2013-09-16 04:40:00,
2013-09-15 22:50:00,68.9,52.1,29.97,SSE,161,2.0,11.0,55,0.00,,,0.21,Wunderground v.1.15,2013-09-16 04:50:00,
2013-09-15 23:00:00,69.0,52.2,29.97,SE,128,1.0,1.0,55,0.00,,,0.21,Wunderground v.1.15,2013-09-16 05:00:00,
2013-09-15 23:10:00,68.8,52.9,29.97,ESE,110,3.0,11.0,57,0.00,,,0.21,Wunderground v.1.15,2013-09-16 05:10:00,
2013-09-15 23:20:00,68.4,53.0,29.97,ESE,107,3.0,3.0,58,0.00,,,0.21,Wunderground v.1.15,2013-09-16 05:20:00,
2013-09-15 23:30:00,68.2,53.3,29.97,ESE,107,1.0,1.0,59,0.00,,,0.21,Wunderground v.1.15,2013-09-16 05:30:00,
2013-09-15 23:40:00,67.9,55.3,29.97,East,86,2.0,2.0,64,0.00,,,0.21,Wunderground v.1.15,2013-09-16 05:40:00,
2013-09-15 23:50:00,66.7,55.4,29.98,East,80,2.0,2.0,67,0.00,,,0.21,Wunderground v.1.15,2013-09-16 05:50:00,